Todos
Cleve Airport (Cleve, South Australia) CVC Condições meteorológicas
|
Cleve, South Australia (CVC / YCEE)
Céu Limpo
Vento Ligeiro |
|
18 °C |
There is no TAF data available at CVC or any nearby airports.
Histórico recente de METAR CVC
| Date | Time (ACST) | Flight Rules | Wind Dir. | Speed | Type | Height AGL (ft) | Visibility | Temp (°C) | Temp (°F) | Dew Point (°C) | Dew Point (°F) | Rel. Humid. | Pressure | Density Altitude | Remarks |
|---|---|---|---|---|---|---|---|---|---|---|---|---|---|---|---|
| 05-Mai | 14:30 | n/a | 220° | 8 kt | Missing | 18° | 64° | 7° | 44° | 49% | 1023 mb | 660 ft | |||
| 05-Mai | 13:30 | n/a | 200° | 6 kt | Missing | 18° | 64° | 8° | 46° | 52% | 1023 mb | 660 ft | |||
| 05-Mai | 12:30 | n/a | 260° | 6 kt | Missing | 17° | 62° | 9° | 48° | 59% | 1024 mb | 510 ft | |||
| 05-Mai | 11:30 | n/a | 220° | 8 kt | Missing | 16° | 60° | 9° | 48° | 63% | 1024 mb | 390 ft | |||
| 05-Mai | 10:30 | n/a | 210° | 7 kt | Missing | 15° | 59° | 8° | 46° | 63% | 1024 mb | 270 ft | |||
| 05-Mai | 09:30 | n/a | 260° | 8 kt | Missing | 14° | 57° | 10° | 50° | 77% | 1024 mb | 150 ft | |||
| 05-Mai | 08:30 | n/a | 270° | 5 kt | Missing | 12° | 53° | 11° | 51° | 94% | 1024 mb | -90 ft | |||
| 05-Mai | 07:30 | n/a | 290° | 6 kt | Missing | 11° | 51° | 10° | 50° | 94% | 1023 mb | -180 ft | |||
| 05-Mai | 06:30 | n/a | 290° | 7 kt | Missing | 11° | 51° | 10° | 50° | 94% | 1023 mb | -180 ft | |||
| 05-Mai | 05:30 | n/a | 270° | 7 kt | Missing | 11° | 51° | 10° | 50° | 94% | 1023 mb | -180 ft | |||
| 05-Mai | 04:30 | n/a | 270° | 8 kt | Missing | 12° | 53° | 11° | 51° | 94% | 1022 mb | -31 ft | |||
| 05-Mai | 03:30 | n/a | 290° | 7 kt | Missing | 11° | 51° | 10° | 50° | 94% | 1022 mb | -151 ft | |||
| 05-Mai | 02:30 | n/a | 290° | 7 kt | Missing | 11° | 51° | 10° | 50° | 94% | 1022 mb | -151 ft | |||
| 05-Mai | 01:30 | n/a | 290° | 6 kt | Missing | 12° | 53° | 11° | 51° | 94% | 1022 mb | -31 ft | |||
| 05-Mai | 00:30 | n/a | 280° | 7 kt | Missing | 12° | 53° | 10° | 50° | 88% | 1022 mb | -31 ft | |||
| 04-Mai | 23:30 | n/a | 290° | 9 kt | Missing | 12° | 53° | 10° | 50° | 88% | 1022 mb | -31 ft | |||
| 04-Mai | 22:30 | n/a | 280° | 7 kt | Missing | 12° | 53° | 10° | 50° | 88% | 1022 mb | -31 ft | |||
| 04-Mai | 21:30 | n/a | 270° | 8 kt | Missing | 13° | 55° | 11° | 51° | 88% | 1022 mb | 89 ft | |||
| 04-Mai | 20:30 | n/a | 270° | 8 kt | Missing | 13° | 55° | 11° | 51° | 88% | 1021 mb | 119 ft | |||
| 04-Mai | 19:30 | n/a | 270° | 8 kt | Missing | 13° | 55° | 10° | 50° | 82% | 1020 mb | 148 ft | |||
| 04-Mai | 18:30 | n/a | 250° | 8 kt | Missing | 14° | 57° | 9° | 48° | 72% | 1019 mb | 298 ft | |||
| 04-Mai | 17:30 | n/a | 250° | 13 kt | Missing | 16° | 60° | 10° | 50° | 68% | 1018 mb | 567 ft | |||
| 04-Mai | 16:30 | n/a | 220° | 13 kt | Missing | 18° | 64° | 9° | 48° | 56% | 1017 mb | 837 ft | |||
| 04-Mai | 15:30 | n/a | 260° | 13 kt | Missing | 19° | 66° | 8° | 46° | 49% | 1017 mb | 957 ft |
Entrar
| Seu navegador não suporta. atualize seu navegador |
